sensor_id;sensor_type;location;lat;lon;timestamp;temperature;humidity
19174;DHT22;9719;49.322;8.536;2022-11-11T00:02:26;7.60;92.20
19174;DHT22;9719;49.322;8.536;2022-11-11T00:07:28;7.60;92.10
19174;DHT22;9719;49.322;8.536;2022-11-11T00:12:30;7.60;92.00
19174;DHT22;9719;49.322;8.536;2022-11-11T00:17:33;7.40;91.40
19174;DHT22;9719;49.322;8.536;2022-11-11T00:23:04;7.30;91.50
19174;DHT22;9719;49.322;8.536;2022-11-11T00:28:24;7.00;92.00
19174;DHT22;9719;49.322;8.536;2022-11-11T00:33:27;7.00;92.40
19174;DHT22;9719;49.322;8.536;2022-11-11T00:38:29;7.00;92.40
19174;DHT22;9719;49.322;8.536;2022-11-11T00:43:49;7.00;92.40
19174;DHT22;9719;49.322;8.536;2022-11-11T00:48:52;7.10;92.20
19174;DHT22;9719;49.322;8.536;2022-11-11T00:54:12;7.00;92.40
19174;DHT22;9719;49.322;8.536;2022-11-11T00:59:14;7.00;92.50
19174;DHT22;9719;49.322;8.536;2022-11-11T01:04:17;7.00;92.20
19174;DHT22;9719;49.322;8.536;2022-11-11T01:09:19;6.90;91.70
19174;DHT22;9719;49.322;8.536;2022-11-11T01:14:20;6.70;91.80
19174;DHT22;9719;49.322;8.536;2022-11-11T01:19:24;6.60;92.40
19174;DHT22;9719;49.322;8.536;2022-11-11T01:24:26;6.50;92.60
19174;DHT22;9719;49.322;8.536;2022-11-11T01:29:28;6.50;92.80
19174;DHT22;9719;49.322;8.536;2022-11-11T01:34:31;6.50;92.60
19174;DHT22;9719;49.322;8.536;2022-11-11T01:39:33;6.50;92.70
19174;DHT22;9719;49.322;8.536;2022-11-11T01:44:44;6.60;92.90
19174;DHT22;9719;49.322;8.536;2022-11-11T01:49:51;6.60;93.10
19174;DHT22;9719;49.322;8.536;2022-11-11T01:54:59;6.60;92.80
19174;DHT22;9719;49.322;8.536;2022-11-11T02:00:05;6.50;92.60
19174;DHT22;9719;49.322;8.536;2022-11-11T02:05:12;6.50;93.00
19174;DHT22;9719;49.322;8.536;2022-11-11T02:10:32;6.50;93.10
19174;DHT22;9719;49.322;8.536;2022-11-11T02:15:35;6.50;93.00
19174;DHT22;9719;49.322;8.536;2022-11-11T02:20:42;6.50;92.70
19174;DHT22;9719;49.322;8.536;2022-11-11T02:25:48;6.50;92.90
19174;DHT22;9719;49.322;8.536;2022-11-11T02:30:50;6.40;93.00
19174;DHT22;9719;49.322;8.536;2022-11-11T02:35:54;6.40;92.80
19174;DHT22;9719;49.322;8.536;2022-11-11T02:40:58;6.30;92.90
19174;DHT22;9719;49.322;8.536;2022-11-11T02:46:17;6.30;93.00
19174;DHT22;9719;49.322;8.536;2022-11-11T02:51:19;6.30;93.00
19174;DHT22;9719;49.322;8.536;2022-11-11T02:56:22;6.30;93.00
19174;DHT22;9719;49.322;8.536;2022-11-11T03:01:38;6.40;93.40
19174;DHT22;9719;49.322;8.536;2022-11-11T03:06:40;6.50;93.50
19174;DHT22;9719;49.322;8.536;2022-11-11T03:11:43;6.50;93.30
19174;DHT22;9719;49.322;8.536;2022-11-11T03:16:45;6.50;92.80
19174;DHT22;9719;49.322;8.536;2022-11-11T03:22:05;6.20;92.50
19174;DHT22;9719;49.322;8.536;2022-11-11T03:27:08;6.00;92.80
19174;DHT22;9719;49.322;8.536;2022-11-11T03:32:10;5.90;92.80
19174;DHT22;9719;49.322;8.536;2022-11-11T03:37:11;5.70;93.20
19174;DHT22;9719;49.322;8.536;2022-11-11T03:42:33;5.70;93.70
19174;DHT22;9719;49.322;8.536;2022-11-11T03:47:36;5.80;93.70
19174;DHT22;9719;49.322;8.536;2022-11-11T03:52:40;5.90;93.70
19174;DHT22;9719;49.322;8.536;2022-11-11T03:57:45;5.90;93.70
19174;DHT22;9719;49.322;8.536;2022-11-11T04:02:47;5.90;93.70
19174;DHT22;9719;49.322;8.536;2022-11-11T04:08:10;6.00;93.50
19174;DHT22;9719;49.322;8.536;2022-11-11T04:13:32;6.00;93.30
19174;DHT22;9719;49.322;8.536;2022-11-11T04:18:51;5.90;93.30
19174;DHT22;9719;49.322;8.536;2022-11-11T04:24:12;5.90;93.40
19174;DHT22;9719;49.322;8.536;2022-11-11T04:29:34;5.90;93.30
19174;DHT22;9719;49.322;8.536;2022-11-11T04:34:35;5.90;93.20
19174;DHT22;9719;49.322;8.536;2022-11-11T04:39:37;6.00;93.20
19174;DHT22;9719;49.322;8.536;2022-11-11T04:44:58;5.80;92.80
19174;DHT22;9719;49.322;8.536;2022-11-11T04:50:18;5.70;93.30
19174;DHT22;9719;49.322;8.536;2022-11-11T04:55:19;5.70;93.50
19174;DHT22;9719;49.322;8.536;2022-11-11T05:00:40;5.70;93.90
19174;DHT22;9719;49.322;8.536;2022-11-11T05:05:44;5.80;94.00
19174;DHT22;9719;49.322;8.536;2022-11-11T05:11:04;5.90;94.10
19174;DHT22;9719;49.322;8.536;2022-11-11T05:16:09;6.10;93.90
19174;DHT22;9719;49.322;8.536;2022-11-11T05:21:31;6.20;94.00
19174;DHT22;9719;49.322;8.536;2022-11-11T05:26:33;6.30;94.10
19174;DHT22;9719;49.322;8.536;2022-11-11T05:31:36;6.40;94.00
19174;DHT22;9719;49.322;8.536;2022-11-11T05:36:38;6.50;94.00
19174;DHT22;9719;49.322;8.536;2022-11-11T05:41:40;6.60;94.10
19174;DHT22;9719;49.322;8.536;2022-11-11T05:46:44;6.60;94.10
19174;DHT22;9719;49.322;8.536;2022-11-11T05:51:46;6.70;94.10
19174;DHT22;9719;49.322;8.536;2022-11-11T05:56:48;6.70;94.00
19174;DHT22;9719;49.322;8.536;2022-11-11T06:01:51;6.70;94.10
19174;DHT22;9719;49.322;8.536;2022-11-11T06:06:53;6.70;94.10
19174;DHT22;9719;49.322;8.536;2022-11-11T06:11:55;6.70;94.10
19174;DHT22;9719;49.322;8.536;2022-11-11T06:16:58;6.70;94.10
19174;DHT22;9719;49.322;8.536;2022-11-11T06:22:00;6.70;94.30
19174;DHT22;9719;49.322;8.536;2022-11-11T06:27:03;6.60;94.20
19174;DHT22;9719;49.322;8.536;2022-11-11T06:32:06;6.60;94.20
19174;DHT22;9719;49.322;8.536;2022-11-11T06:37:09;6.60;94.20
19174;DHT22;9719;49.322;8.536;2022-11-11T06:42:10;6.60;94.30
19174;DHT22;9719;49.322;8.536;2022-11-11T06:47:14;6.60;94.30
19174;DHT22;9719;49.322;8.536;2022-11-11T06:52:16;6.60;94.50
19174;DHT22;9719;49.322;8.536;2022-11-11T06:57:18;6.50;94.50
19174;DHT22;9719;49.322;8.536;2022-11-11T07:02:21;6.70;94.70
19174;DHT22;9719;49.322;8.536;2022-11-11T07:07:23;6.70;94.70
19174;DHT22;9719;49.322;8.536;2022-11-11T07:12:25;6.80;94.80
19174;DHT22;9719;49.322;8.536;2022-11-11T07:17:28;7.10;95.00
19174;DHT22;9719;49.322;8.536;2022-11-11T07:22:30;7.00;94.80
19174;DHT22;9719;49.322;8.536;2022-11-11T07:27:34;7.10;94.90
19174;DHT22;9719;49.322;8.536;2022-11-11T07:32:43;7.20;95.00
19174;DHT22;9719;49.322;8.536;2022-11-11T07:37:45;7.30;95.10
19174;DHT22;9719;49.322;8.536;2022-11-11T07:42:47;7.30;95.20
19174;DHT22;9719;49.322;8.536;2022-11-11T07:47:50;7.50;95.20
19174;DHT22;9719;49.322;8.536;2022-11-11T07:52:52;7.60;95.10
19174;DHT22;9719;49.322;8.536;2022-11-11T07:57:56;7.60;95.10
19174;DHT22;9719;49.322;8.536;2022-11-11T08:03:00;7.80;95.30
19174;DHT22;9719;49.322;8.536;2022-11-11T08:08:02;7.90;95.40
19174;DHT22;9719;49.322;8.536;2022-11-11T08:13:05;8.00;95.40
19174;DHT22;9719;49.322;8.536;2022-11-11T08:18:25;8.20;95.40
19174;DHT22;9719;49.322;8.536;2022-11-11T08:23:27;8.30;95.40
19174;DHT22;9719;49.322;8.536;2022-11-11T08:28:33;8.40;95.40
19174;DHT22;9719;49.322;8.536;2022-11-11T08:33:37;8.50;95.40
19174;DHT22;9719;49.322;8.536;2022-11-11T08:38:38;8.50;95.40
19174;DHT22;9719;49.322;8.536;2022-11-11T08:43:40;8.60;95.40
19174;DHT22;9719;49.322;8.536;2022-11-11T08:48:43;8.70;95.50
19174;DHT22;9719;49.322;8.536;2022-11-11T08:53:45;8.70;95.60
19174;DHT22;9719;49.322;8.536;2022-11-11T08:58:47;9.80;96.20
19174;DHT22;9719;49.322;8.536;2022-11-11T09:03:50;8.80;95.50
19174;DHT22;9719;49.322;8.536;2022-11-11T09:08:52;8.90;95.60
19174;DHT22;9719;49.322;8.536;2022-11-11T09:13:54;9.00;95.20
19174;DHT22;9719;49.322;8.536;2022-11-11T09:18:57;9.00;95.30
19174;DHT22;9719;49.322;8.536;2022-11-11T09:23:59;9.10;95.40
19174;DHT22;9719;49.322;8.536;2022-11-11T09:29:01;9.30;95.60
19174;DHT22;9719;49.322;8.536;2022-11-11T09:34:04;9.40;95.40
19174;DHT22;9719;49.322;8.536;2022-11-11T09:39:07;9.40;95.40
19174;DHT22;9719;49.322;8.536;2022-11-11T09:44:20;9.60;95.30
19174;DHT22;9719;49.322;8.536;2022-11-11T09:49:42;9.70;95.30
19174;DHT22;9719;49.322;8.536;2022-11-11T09:54:52;9.80;95.10
19174;DHT22;9719;49.322;8.536;2022-11-11T09:59:57;9.90;95.10
19174;DHT22;9719;49.322;8.536;2022-11-11T10:05:06;9.90;94.90
19174;DHT22;9719;49.322;8.536;2022-11-11T10:10:20;10.00;95.00
19174;DHT22;9719;49.322;8.536;2022-11-11T10:15:27;10.10;94.90
19174;DHT22;9719;49.322;8.536;2022-11-11T10:20:36;10.10;94.70
19174;DHT22;9719;49.322;8.536;2022-11-11T10:25:45;10.10;94.70
19174;DHT22;9719;49.322;8.536;2022-11-11T10:30:53;10.10;94.70
19174;DHT22;9719;49.322;8.536;2022-11-11T10:36:00;10.20;94.70
19174;DHT22;9719;49.322;8.536;2022-11-11T10:41:08;10.30;94.70
19174;DHT22;9719;49.322;8.536;2022-11-11T10:46:15;10.30;94.50
19174;DHT22;9719;49.322;8.536;2022-11-11T10:51:21;10.30;94.50
19174;DHT22;9719;49.322;8.536;2022-11-11T10:56:28;10.30;94.30
19174;DHT22;9719;49.322;8.536;2022-11-11T11:01:37;10.30;94.40
19174;DHT22;9719;49.322;8.536;2022-11-11T11:06:44;10.40;94.40
19174;DHT22;9719;49.322;8.536;2022-11-11T11:11:51;10.50;94.70
19174;DHT22;9719;49.322;8.536;2022-11-11T11:16:57;10.60;94.70
19174;DHT22;9719;49.322;8.536;2022-11-11T11:22:02;10.70;94.50
19174;DHT22;9719;49.322;8.536;2022-11-11T11:27:06;10.80;94.50
19174;DHT22;9719;49.322;8.536;2022-11-11T11:32:14;10.90;94.50
19174;DHT22;9719;49.322;8.536;2022-11-11T11:37:19;11.00;94.30
19174;DHT22;9719;49.322;8.536;2022-11-11T11:42:32;11.10;94.20
19174;DHT22;9719;49.322;8.536;2022-11-11T11:47:43;11.10;94.10
19174;DHT22;9719;49.322;8.536;2022-11-11T11:53:00;11.10;94.10
19174;DHT22;9719;49.322;8.536;2022-11-11T11:58:16;11.20;93.90
19174;DHT22;9719;49.322;8.536;2022-11-11T12:03:39;11.30;93.90
19174;DHT22;9719;49.322;8.536;2022-11-11T12:08:56;11.40;93.70
19174;DHT22;9719;49.322;8.536;2022-11-11T12:19:47;11.40;93.60
19174;DHT22;9719;49.322;8.536;2022-11-11T12:25:00;11.40;93.70
19174;DHT22;9719;49.322;8.536;2022-11-11T12:30:08;11.50;93.50
19174;DHT22;9719;49.322;8.536;2022-11-11T12:35:28;11.40;93.50
19174;DHT22;9719;49.322;8.536;2022-11-11T12:40:44;11.50;93.50
19174;DHT22;9719;49.322;8.536;2022-11-11T12:45:56;11.50;93.50
19174;DHT22;9719;49.322;8.536;2022-11-11T12:51:12;11.50;93.50
19174;DHT22;9719;49.322;8.536;2022-11-11T12:56:23;11.60;93.30
19174;DHT22;9719;49.322;8.536;2022-11-11T13:01:33;11.50;93.40
19174;DHT22;9719;49.322;8.536;2022-11-11T13:06:49;11.60;93.50
19174;DHT22;9719;49.322;8.536;2022-11-11T13:12:00;11.70;93.50
19174;DHT22;9719;49.322;8.536;2022-11-11T13:17:09;11.70;93.30
19174;DHT22;9719;49.322;8.536;2022-11-11T13:22:20;11.70;93.30
19174;DHT22;9719;49.322;8.536;2022-11-11T13:27:33;11.70;93.20
19174;DHT22;9719;49.322;8.536;2022-11-11T13:32:39;11.60;93.10
19174;DHT22;9719;49.322;8.536;2022-11-11T13:37:43;11.60;93.20
19174;DHT22;9719;49.322;8.536;2022-11-11T13:42:49;11.60;93.10
19174;DHT22;9719;49.322;8.536;2022-11-11T13:47:54;11.60;93.20
19174;DHT22;9719;49.322;8.536;2022-11-11T13:52:59;11.60;93.00
19174;DHT22;9719;49.322;8.536;2022-11-11T13:58:20;11.40;92.70
19174;DHT22;9719;49.322;8.536;2022-11-11T14:26:56;11.10;93.00
19174;DHT22;9719;49.322;8.536;2022-11-11T14:43:49;11.00;93.20
19174;DHT22;9719;49.322;8.536;2022-11-11T14:49:02;11.90;92.10
19174;DHT22;9719;49.322;8.536;2022-11-11T14:54:05;11.70;91.80
19174;DHT22;9719;49.322;8.536;2022-11-11T14:59:10;11.50;91.90
19174;DHT22;9719;49.322;8.536;2022-11-11T15:04:14;11.40;92.00
19174;DHT22;9719;49.322;8.536;2022-11-11T15:09:53;11.30;92.20
19174;DHT22;9719;49.322;8.536;2022-11-11T15:15:07;11.20;92.30
19174;DHT22;9719;49.322;8.536;2022-11-11T15:20:24;11.10;92.30
19174;DHT22;9719;49.322;8.536;2022-11-11T15:25:34;10.90;92.40
19174;DHT22;9719;49.322;8.536;2022-11-11T15:30:51;10.90;92.60
19174;DHT22;9719;49.322;8.536;2022-11-11T15:35:59;10.70;93.00
19174;DHT22;9719;49.322;8.536;2022-11-11T15:41:02;10.70;92.90
19174;DHT22;9719;49.322;8.536;2022-11-11T15:46:05;10.70;93.00
19174;DHT22;9719;49.322;8.536;2022-11-11T15:51:25;10.60;92.80
19174;DHT22;9719;49.322;8.536;2022-11-11T15:56:29;10.60;93.30
19174;DHT22;9719;49.322;8.536;2022-11-11T16:01:33;10.60;93.20
19174;DHT22;9719;49.322;8.536;2022-11-11T16:06:35;10.60;93.10
19174;DHT22;9719;49.322;8.536;2022-11-11T16:11:38;10.60;93.20
19174;DHT22;9719;49.322;8.536;2022-11-11T16:16:42;10.60;93.00
19174;DHT22;9719;49.322;8.536;2022-11-11T16:21:48;10.60;93.30
19174;DHT22;9719;49.322;8.536;2022-11-11T16:26:52;10.60;93.60
19174;DHT22;9719;49.322;8.536;2022-11-11T16:31:55;10.60;93.50
19174;DHT22;9719;49.322;8.536;2022-11-11T16:36:57;10.60;93.50
19174;DHT22;9719;49.322;8.536;2022-11-11T16:42:00;10.60;93.60
19174;DHT22;9719;49.322;8.536;2022-11-11T16:47:05;10.60;93.50
19174;DHT22;9719;49.322;8.536;2022-11-11T16:52:10;10.70;93.80
19174;DHT22;9719;49.322;8.536;2022-11-11T16:57:15;10.70;93.90
19174;DHT22;9719;49.322;8.536;2022-11-11T17:02:21;10.70;93.90
19174;DHT22;9719;49.322;8.536;2022-11-11T17:07:28;10.70;93.90
19174;DHT22;9719;49.322;8.536;2022-11-11T17:12:31;10.70;93.90
19174;DHT22;9719;49.322;8.536;2022-11-11T17:17:34;10.60;93.80
19174;DHT22;9719;49.322;8.536;2022-11-11T17:22:36;10.50;94.00
19174;DHT22;9719;49.322;8.536;2022-11-11T17:27:46;10.50;94.20
19174;DHT22;9719;49.322;8.536;2022-11-11T17:32:49;10.40;94.10
19174;DHT22;9719;49.322;8.536;2022-11-11T17:37:51;10.40;94.10
19174;DHT22;9719;49.322;8.536;2022-11-11T17:42:52;10.30;94.30
19174;DHT22;9719;49.322;8.536;2022-11-11T17:47:56;10.40;94.30
19174;DHT22;9719;49.322;8.536;2022-11-11T17:52:57;10.40;94.30
19174;DHT22;9719;49.322;8.536;2022-11-11T17:57:59;10.30;94.30
19174;DHT22;9719;49.322;8.536;2022-11-11T18:03:02;10.30;94.40
19174;DHT22;9719;49.322;8.536;2022-11-11T18:08:04;10.30;94.50
19174;DHT22;9719;49.322;8.536;2022-11-11T18:13:06;10.20;94.60
19174;DHT22;9719;49.322;8.536;2022-11-11T18:18:09;10.20;94.60
19174;DHT22;9719;49.322;8.536;2022-11-11T18:23:11;10.20;94.50
19174;DHT22;9719;49.322;8.536;2022-11-11T18:28:13;10.10;94.60
19174;DHT22;9719;49.322;8.536;2022-11-11T18:33:16;10.10;94.70
19174;DHT22;9719;49.322;8.536;2022-11-11T18:38:18;10.10;94.80
19174;DHT22;9719;49.322;8.536;2022-11-11T18:43:20;10.00;94.70
19174;DHT22;9719;49.322;8.536;2022-11-11T18:48:23;10.00;94.70
19174;DHT22;9719;49.322;8.536;2022-11-11T18:53:27;10.00;94.80
19174;DHT22;9719;49.322;8.536;2022-11-11T18:58:28;10.00;94.90
19174;DHT22;9719;49.322;8.536;2022-11-11T19:03:32;10.00;94.90
19174;DHT22;9719;49.322;8.536;2022-11-11T19:08:34;10.00;94.90
19174;DHT22;9719;49.322;8.536;2022-11-11T19:13:36;10.00;94.90
19174;DHT22;9719;49.322;8.536;2022-11-11T19:18:40;10.00;94.90
19174;DHT22;9719;49.322;8.536;2022-11-11T19:23:43;10.00;94.70
19174;DHT22;9719;49.322;8.536;2022-11-11T19:28:45;9.90;94.90
19174;DHT22;9719;49.322;8.536;2022-11-11T19:33:49;9.80;94.70
19174;DHT22;9719;49.322;8.536;2022-11-11T19:38:51;9.80;94.90
19174;DHT22;9719;49.322;8.536;2022-11-11T19:43:54;9.90;95.10
19174;DHT22;9719;49.322;8.536;2022-11-11T19:48:58;9.90;95.00
19174;DHT22;9719;49.322;8.536;2022-11-11T19:54:00;9.90;95.10
19174;DHT22;9719;49.322;8.536;2022-11-11T19:59:02;9.90;95.00
19174;DHT22;9719;49.322;8.536;2022-11-11T20:04:05;9.80;95.00
19174;DHT22;9719;49.322;8.536;2022-11-11T20:09:07;9.90;95.20
19174;DHT22;9719;49.322;8.536;2022-11-11T20:14:09;9.90;94.90
19174;DHT22;9719;49.322;8.536;2022-11-11T20:19:13;9.80;94.80
19174;DHT22;9719;49.322;8.536;2022-11-11T20:24:16;9.80;94.80
19174;DHT22;9719;49.322;8.536;2022-11-11T20:29:19;9.60;94.90
19174;DHT22;9719;49.322;8.536;2022-11-11T20:34:22;10.70;95.50
19174;DHT22;9719;49.322;8.536;2022-11-11T20:39:24;9.50;95.00
19174;DHT22;9719;49.322;8.536;2022-11-11T20:44:26;9.50;95.00
19174;DHT22;9719;49.322;8.536;2022-11-11T20:49:29;9.50;95.20
19174;DHT22;9719;49.322;8.536;2022-11-11T20:54:30;9.40;95.20
19174;DHT22;9719;49.322;8.536;2022-11-11T20:59:32;9.50;95.00
19174;DHT22;9719;49.322;8.536;2022-11-11T21:04:35;9.50;95.50
19174;DHT22;9719;49.322;8.536;2022-11-11T21:09:37;9.60;95.40
19174;DHT22;9719;49.322;8.536;2022-11-11T21:14:39;9.60;95.40
19174;DHT22;9719;49.322;8.536;2022-11-11T21:19:42;9.60;95.40
19174;DHT22;9719;49.322;8.536;2022-11-11T21:24:43;9.60;95.40
19174;DHT22;9719;49.322;8.536;2022-11-11T21:29:45;9.70;95.40
19174;DHT22;9719;49.322;8.536;2022-11-11T21:34:49;9.70;95.20
19174;DHT22;9719;49.322;8.536;2022-11-11T21:39:50;9.70;95.40
19174;DHT22;9719;49.322;8.536;2022-11-11T21:44:52;9.70;95.40
19174;DHT22;9719;49.322;8.536;2022-11-11T21:49:55;9.80;95.20
19174;DHT22;9719;49.322;8.536;2022-11-11T21:54:57;9.80;95.40
19174;DHT22;9719;49.322;8.536;2022-11-11T21:59:59;9.80;95.30
19174;DHT22;9719;49.322;8.536;2022-11-11T22:05:02;9.80;95.30
19174;DHT22;9719;49.322;8.536;2022-11-11T22:10:06;9.80;95.40
19174;DHT22;9719;49.322;8.536;2022-11-11T22:15:08;9.80;95.30
19174;DHT22;9719;49.322;8.536;2022-11-11T22:20:12;9.90;95.40
19174;DHT22;9719;49.322;8.536;2022-11-11T22:25:13;9.80;95.40
19174;DHT22;9719;49.322;8.536;2022-11-11T22:30:15;9.80;95.20
19174;DHT22;9719;49.322;8.536;2022-11-11T22:35:19;9.80;95.20
19174;DHT22;9719;49.322;8.536;2022-11-11T22:40:21;9.70;95.00
19174;DHT22;9719;49.322;8.536;2022-11-11T22:45:22;9.70;95.00
19174;DHT22;9719;49.322;8.536;2022-11-11T22:50:25;9.60;95.00
19174;DHT22;9719;49.322;8.536;2022-11-11T22:55:27;9.50;95.50
19174;DHT22;9719;49.322;8.536;2022-11-11T23:00:29;9.60;95.60
19174;DHT22;9719;49.322;8.536;2022-11-11T23:05:32;9.60;95.60
19174;DHT22;9719;49.322;8.536;2022-11-11T23:10:34;9.70;95.50
19174;DHT22;9719;49.322;8.536;2022-11-11T23:15:36;9.70;95.50
19174;DHT22;9719;49.322;8.536;2022-11-11T23:20:39;9.70;95.60
19174;DHT22;9719;49.322;8.536;2022-11-11T23:25:40;9.80;95.60
19174;DHT22;9719;49.322;8.536;2022-11-11T23:30:42;9.70;95.40
19174;DHT22;9719;49.322;8.536;2022-11-11T23:35:45;9.70;95.60
19174;DHT22;9719;49.322;8.536;2022-11-11T23:40:47;9.80;95.80
19174;DHT22;9719;49.322;8.536;2022-11-11T23:45:49;9.80;95.60
19174;DHT22;9719;49.322;8.536;2022-11-11T23:50:52;9.80;95.60
19174;DHT22;9719;49.322;8.536;2022-11-11T23:55:55;9.80;95.70
